createdAt,value
2022-09-17T00:00:38.073Z,2.53
2022-09-17T00:03:09.962Z,2.10
2022-09-17T00:05:37.840Z,2.33
2022-09-17T00:08:06.347Z,2.57
2022-09-17T00:10:37.655Z,2.40
2022-09-17T00:13:05.210Z,2.30
2022-09-17T00:15:31.912Z,2.27
2022-09-17T00:17:58.610Z,2.33
2022-09-17T00:20:26.371Z,2.47
2022-09-17T00:22:54.293Z,2.73
2022-09-17T00:25:20.962Z,2.23
2022-09-17T00:27:47.723Z,1.93
2022-09-17T00:30:14.541Z,2.33
2022-09-17T00:32:41.327Z,2.33
2022-09-17T00:35:08.016Z,2.83
2022-09-17T00:37:34.693Z,2.73
2022-09-17T00:40:01.411Z,3.07
2022-09-17T00:42:28.092Z,3.47
2022-09-17T00:44:57.127Z,3.57
2022-09-17T00:47:25.504Z,3.33
2022-09-17T00:49:57.974Z,3.30
2022-09-17T00:52:30.103Z,2.97
2022-09-17T00:55:02.825Z,2.03
2022-09-17T00:57:33.447Z,2.83
2022-09-17T01:00:00.574Z,2.93
2022-09-17T01:02:27.331Z,2.33
2022-09-17T01:04:54.627Z,2.67
2022-09-17T01:07:48.687Z,2.20
2022-09-17T01:10:55.857Z,1.90
2022-09-17T01:13:54.682Z,2.47
2022-09-17T01:16:41.318Z,2.20
2022-09-17T01:19:44.817Z,2.60
2022-09-17T01:22:26.090Z,2.30
2022-09-17T01:25:11.262Z,2.50
2022-09-17T01:27:55.903Z,2.30
2022-09-17T01:31:01.071Z,2.30
2022-09-17T01:33:50.934Z,2.47
2022-09-17T01:36:34.083Z,2.20
2022-09-17T01:39:37.393Z,2.40
2022-09-17T01:42:23.960Z,2.70
2022-09-17T01:45:18.593Z,3.20
2022-09-17T01:47:52.093Z,2.83
2022-09-17T01:50:27.002Z,2.87
2022-09-17T01:52:56.775Z,3.70
2022-09-17T01:55:30.153Z,3.03
2022-09-17T01:58:03.589Z,2.80
2022-09-17T02:00:31.134Z,3.30
2022-09-17T02:03:06.846Z,3.40
2022-09-17T02:05:51.446Z,4.00
2022-09-17T02:08:18.051Z,3.20
2022-09-17T02:10:49.732Z,4.20
2022-09-17T02:13:34.217Z,4.13
2022-09-17T02:16:19.431Z,3.50
2022-09-17T02:19:09.528Z,3.60
2022-09-17T02:21:54.665Z,3.03
2022-09-17T02:24:27.043Z,2.47
2022-09-17T02:27:28.221Z,1.87
2022-09-17T02:29:54.931Z,1.60
2022-09-17T02:32:21.598Z,2.47
2022-09-17T02:34:48.303Z,1.70
2022-09-17T02:37:15.240Z,2.90
2022-09-17T02:39:42.592Z,3.70
2022-09-17T02:42:27.925Z,3.60
2022-09-17T02:45:00.424Z,3.03
2022-09-17T02:48:02.193Z,3.23
2022-09-17T02:50:31.875Z,3.33
2022-09-17T02:53:08.408Z,3.17
2022-09-17T02:56:02.825Z,3.13
2022-09-17T02:58:45.466Z,3.50
2022-09-17T03:01:24.055Z,3.57
2022-09-17T03:03:53.431Z,3.67
2022-09-17T03:06:20.609Z,3.37
2022-09-17T03:08:47.723Z,4.10
2022-09-17T03:11:15.074Z,4.03
2022-09-17T03:13:41.831Z,3.47
2022-09-17T03:16:08.659Z,3.90
2022-09-17T03:18:35.491Z,3.47
2022-09-17T03:21:02.258Z,3.83
2022-09-17T03:23:29.047Z,4.07
2022-09-17T03:25:55.903Z,4.70
2022-09-17T03:28:22.767Z,3.77
2022-09-17T03:30:49.389Z,3.83
2022-09-17T03:33:16.004Z,3.50
2022-09-17T03:35:44.134Z,3.00
2022-09-17T03:38:11.571Z,2.90
2022-09-17T03:40:38.565Z,3.60
2022-09-17T03:43:06.062Z,3.13
2022-09-17T03:45:32.768Z,3.00
2022-09-17T03:47:59.371Z,2.83
2022-09-17T03:50:26.139Z,2.87
2022-09-17T03:52:52.846Z,3.10
2022-09-17T03:55:19.419Z,3.13
2022-09-17T03:57:46.026Z,3.33
2022-09-17T04:00:15.480Z,2.73
2022-09-17T04:02:43.100Z,2.57
2022-09-17T04:05:10.303Z,3.00
2022-09-17T04:07:36.909Z,3.03
2022-09-17T04:10:05.349Z,2.90
2022-09-17T04:12:32.344Z,3.10
2022-09-17T04:14:58.985Z,2.77
2022-09-17T04:17:25.713Z,3.10
2022-09-17T04:19:53.570Z,2.80
2022-09-17T04:22:20.284Z,2.90
2022-09-17T04:24:46.861Z,2.90
2022-09-17T04:27:13.543Z,2.90
2022-09-17T04:32:43.523Z,3.60
2022-09-17T04:35:40.572Z,3.70
2022-09-17T04:38:28.852Z,3.53
2022-09-17T04:41:12.899Z,2.57
2022-09-17T04:46:45.035Z,2.50
